Time;durP1;ratioP1;P1;durP2;ratioP2;P2;SDS_P1;SDS_P2;PMS_P1;PMS_P2;Temp;Humidity;BMP_temperature;BMP_pressure;BME280_temperature;BME280_humidity;BME280_pressure;Samples;Min_cycle;Max_cycle;Signal;HPM_P1;HPM_P2
2022/09/24 00:00:43;;;;;;;26.38;19.10;;;;;;;;;;4999444;28;20107;-78
2022/09/24 00:03:08;;;;;;;23.77;17.35;;;;;;;;;;5034746;28;20037;-78
2022/09/24 00:05:38;;;;;;;27.17;19.80;;;;;;;;;;5018407;28;20029;-78
2022/09/24 00:08:07;;;;;;;26.10;19.27;;;;;;;;;;5018902;28;20044;-78
2022/09/24 00:10:41;;;;;;;25.42;19.02;;;;;;;;;;5018404;28;20043;-78
2022/09/24 00:13:07;;;;;;;22.23;17.17;;;;;;;;;;5001549;28;20594;-78
2022/09/24 00:15:41;;;;;;;24.35;16.48;;;;;;;;;;5034559;28;20483;-78
2022/09/24 00:18:06;;;;;;;24.80;18.13;;;;;;;;;;5017996;28;20029;-78
2022/09/24 00:20:32;;;;;;;25.08;17.40;;;;;;;;;;5034891;28;20039;-77
2022/09/24 00:22:59;;;;;;;22.92;16.80;;;;;;;;;;5033856;28;20143;-78
2022/09/24 00:28:08;;;;;;;23.05;15.85;;;;;;;;;;5042753;28;20441;-78
2022/09/24 00:30:36;;;;;;;21.10;15.55;;;;;;;;;;5020980;28;20059;-78
2022/09/24 00:33:01;;;;;;;19.60;14.80;;;;;;;;;;5054478;28;20029;-78
2022/09/24 00:35:27;;;;;;;21.20;15.73;;;;;;;;;;5021055;28;20510;-78
2022/09/24 00:37:52;;;;;;;23.52;16.52;;;;;;;;;;5021463;28;20044;-78
2022/09/24 00:40:18;;;;;;;22.52;15.38;;;;;;;;;;5054020;28;20043;-78
2022/09/24 00:42:43;;;;;;;22.60;16.63;;;;;;;;;;5037384;28;20696;-78
2022/09/24 00:45:09;;;;;;;19.50;14.38;;;;;;;;;;5020804;28;20302;-78
2022/09/24 00:47:38;;;;;;;21.00;14.35;;;;;;;;;;5021316;28;20028;-78
2022/09/24 00:50:06;;;;;;;19.50;14.85;;;;;;;;;;5021216;28;20033;-78
2022/09/24 00:52:34;;;;;;;20.17;14.88;;;;;;;;;;5021062;28;20055;-78
2022/09/24 00:54:59;;;;;;;18.33;13.90;;;;;;;;;;5009154;28;20546;-78
2022/09/24 00:57:25;;;;;;;20.02;14.80;;;;;;;;;;4981973;28;20037;-78
2022/09/24 00:59:50;;;;;;;19.90;13.43;;;;;;;;;;4981390;28;20048;-78
2022/09/24 01:02:16;;;;;;;20.52;14.18;;;;;;;;;;5007064;28;20048;-78
2022/09/24 01:04:41;;;;;;;19.35;13.55;;;;;;;;;;4981437;28;20029;-78
2022/09/24 01:07:07;;;;;;;17.98;13.52;;;;;;;;;;4998140;28;20068;-78
2022/09/24 01:09:32;;;;;;;21.23;13.52;;;;;;;;;;4981496;28;20029;-78
2022/09/24 01:12:07;;;;;;;18.88;13.80;;;;;;;;;;4981129;28;20049;-78
2022/09/24 01:14:48;;;;;;;18.55;13.00;;;;;;;;;;4998019;28;20087;-78
2022/09/24 01:17:38;;;;;;;16.90;12.25;;;;;;;;;;5013993;28;20041;-78
2022/09/24 01:20:30;;;;;;;19.90;14.18;;;;;;;;;;4997696;28;20029;-78
2022/09/24 01:23:15;;;;;;;17.70;12.77;;;;;;;;;;5013907;28;20037;-78
2022/09/24 01:25:57;;;;;;;16.83;12.45;;;;;;;;;;4997890;28;20047;-78
2022/09/24 01:28:51;;;;;;;17.27;13.00;;;;;;;;;;4998280;28;20045;-78
2022/09/24 01:31:21;;;;;;;16.05;12.57;;;;;;;;;;5013767;28;20495;-78
2022/09/24 01:33:46;;;;;;;15.55;11.35;;;;;;;;;;4966556;28;20030;-78
2022/09/24 01:36:13;;;;;;;18.30;11.57;;;;;;;;;;5003820;28;20388;-78
2022/09/24 01:38:40;;;;;;;20.02;13.52;;;;;;;;;;4971420;28;20060;-78
2022/09/24 01:41:06;;;;;;;14.52;11.15;;;;;;;;;;4988076;28;20044;-78
2022/09/24 01:43:32;;;;;;;17.23;11.65;;;;;;;;;;4987444;28;20095;-78
2022/09/24 01:45:58;;;;;;;13.05;11.60;;;;;;;;;;4971297;28;20053;-78
2022/09/24 01:48:24;;;;;;;14.32;11.70;;;;;;;;;;5028284;28;20040;-78
2022/09/24 01:51:14;;;;;;;16.23;11.40;;;;;;;;;;5027274;28;20047;-78
2022/09/24 01:54:05;;;;;;;13.05;10.50;;;;;;;;;;5060002;28;20041;-78
2022/09/24 01:56:38;;;;;;;16.25;12.00;;;;;;;;;;5019909;28;20116;-78
2022/09/24 01:59:09;;;;;;;14.98;10.60;;;;;;;;;;5003640;28;20033;-78
2022/09/24 02:02:01;;;;;;;15.35;10.70;;;;;;;;;;5027413;28;20029;-78
2022/09/24 02:04:27;;;;;;;14.23;9.82;;;;;;;;;;4991480;28;20067;-78
2022/09/24 02:06:59;;;;;;;14.32;10.95;;;;;;;;;;5023176;28;20076;-78
2022/09/24 02:09:32;;;;;;;13.60;11.10;;;;;;;;;;5023979;28;20036;-78
2022/09/24 02:12:02;;;;;;;13.93;10.80;;;;;;;;;;5022895;28;20499;-78
2022/09/24 02:14:28;;;;;;;13.52;10.48;;;;;;;;;;5023553;28;20502;-78
2022/09/24 02:16:53;;;;;;;14.18;10.60;;;;;;;;;;5023013;28;20045;-78
2022/09/24 02:19:22;;;;;;;13.10;9.23;;;;;;;;;;5007026;28;20037;-78
2022/09/24 02:21:47;;;;;;;12.23;9.98;;;;;;;;;;5023384;28;20029;-78
2022/09/24 02:24:23;;;;;;;13.27;9.98;;;;;;;;;;5023131;28;20036;-78
2022/09/24 02:26:49;;;;;;;15.30;11.23;;;;;;;;;;5007730;28;20048;-78
2022/09/24 02:29:15;;;;;;;14.27;9.48;;;;;;;;;;5023528;28;20033;-78
2022/09/24 02:31:43;;;;;;;14.02;9.93;;;;;;;;;;5006701;28;20025;-78
2022/09/24 02:34:20;;;;;;;11.15;9.13;;;;;;;;;;5023268;28;20025;-78
2022/09/24 02:36:58;;;;;;;15.05;9.60;;;;;;;;;;5024864;28;20052;-78
2022/09/24 02:39:24;;;;;;;14.63;10.02;;;;;;;;;;5023219;28;20549;-78
2022/09/24 02:41:49;;;;;;;10.88;9.48;;;;;;;;;;5005978;28;20072;-78
2022/09/24 02:44:15;;;;;;;11.73;8.70;;;;;;;;;;5006758;28;20590;-78
2022/09/24 02:46:42;;;;;;;12.18;8.15;;;;;;;;;;5019945;28;20059;-78
2022/09/24 02:49:08;;;;;;;10.63;8.73;;;;;;;;;;5038227;28;20099;-78
2022/09/24 02:51:34;;;;;;;12.90;8.98;;;;;;;;;;5023465;28;20757;-78
2022/09/24 02:54:00;;;;;;;12.10;9.18;;;;;;;;;;5022961;28;20116;-78
2022/09/24 02:56:29;;;;;;;11.00;8.35;;;;;;;;;;5000050;28;20536;-78
2022/09/24 02:58:54;;;;;;;11.38;8.85;;;;;;;;;;4999316;28;20116;-78
2022/09/24 03:01:21;;;;;;;10.75;8.07;;;;;;;;;;5010595;28;20036;-78
2022/09/24 03:03:47;;;;;;;11.93;8.95;;;;;;;;;;5023331;28;20032;-78
2022/09/24 03:06:12;;;;;;;11.05;8.30;;;;;;;;;;5039342;28;20406;-78
2022/09/24 03:08:39;;;;;;;12.40;8.70;;;;;;;;;;5022883;28;20402;-78
2022/09/24 03:11:04;;;;;;;10.82;7.45;;;;;;;;;;5055567;28;20036;-78
2022/09/24 03:13:30;;;;;;;10.88;8.07;;;;;;;;;;5039026;28;20043;-78
2022/09/24 03:15:55;;;;;;;12.32;8.23;;;;;;;;;;5021847;28;20383;-78
2022/09/24 03:18:21;;;;;;;11.00;8.63;;;;;;;;;;5039111;28;20032;-78
2022/09/24 03:20:56;;;;;;;10.50;8.00;;;;;;;;;;5006529;28;20035;-78
2022/09/24 03:23:21;;;;;;;11.60;7.75;;;;;;;;;;5038956;28;20033;-78
2022/09/24 03:25:47;;;;;;;9.85;7.10;;;;;;;;;;5021974;28;20143;-78
2022/09/24 03:28:12;;;;;;;11.95;8.10;;;;;;;;;;5055551;28;20482;-78
2022/09/24 03:33:22;;;;;;;9.25;7.03;;;;;;;;;;5044203;28;20029;-78
2022/09/24 03:35:47;;;;;;;11.05;7.97;;;;;;;;;;5055535;28;20501;-78
2022/09/24 03:38:13;;;;;;;10.15;7.07;;;;;;;;;;5038685;28;20394;-78
2022/09/24 03:40:38;;;;;;;10.35;7.57;;;;;;;;;;5055018;28;20094;-78
2022/09/24 03:43:03;;;;;;;11.23;8.55;;;;;;;;;;5022088;28;20111;-78
2022/09/24 03:45:29;;;;;;;9.48;7.05;;;;;;;;;;5005814;28;20040;-78
2022/09/24 03:47:54;;;;;;;9.63;6.95;;;;;;;;;;5026658;28;20026;-78
2022/09/24 03:50:20;;;;;;;9.57;6.57;;;;;;;;;;4983141;28;20443;-78
2022/09/24 03:52:45;;;;;;;10.63;7.05;;;;;;;;;;4999159;28;20065;-78
2022/09/24 03:55:11;;;;;;;10.18;7.00;;;;;;;;;;5004892;28;20043;-78
2022/09/24 03:57:36;;;;;;;8.15;6.50;;;;;;;;;;4997890;28;20384;-78
2022/09/24 04:00:03;;;;;;;8.15;6.18;;;;;;;;;;4999216;28;20104;-78
2022/09/24 04:02:28;;;;;;;10.15;6.80;;;;;;;;;;5009562;28;20025;-78
2022/09/24 04:04:53;;;;;;;9.02;6.10;;;;;;;;;;4998461;28;20526;-78
2022/09/24 04:07:19;;;;;;;7.90;6.75;;;;;;;;;;4998615;28;20033;-78
2022/09/24 04:09:44;;;;;;;8.05;5.90;;;;;;;;;;4998359;28;20043;-78
2022/09/24 04:12:12;;;;;;;9.02;7.15;;;;;;;;;;4998540;28;20033;-78
2022/09/24 04:14:37;;;;;;;8.02;6.72;;;;;;;;;;4982394;28;20038;-78
2022/09/24 04:17:02;;;;;;;6.63;5.57;;;;;;;;;;4998521;28;20042;-78
2022/09/24 04:19:30;;;;;;;10.65;6.00;;;;;;;;;;4998937;28;20392;-78
2022/09/24 04:21:56;;;;;;;7.95;5.72;;;;;;;;;;5003228;28;20484;-78
2022/09/24 04:24:22;;;;;;;8.93;6.32;;;;;;;;;;5001316;28;20100;-78
2022/09/24 04:26:49;;;;;;;8.90;6.68;;;;;;;;;;5018321;28;20031;-78
2022/09/24 04:29:14;;;;;;;8.43;5.90;;;;;;;;;;5001936;28;20041;-78
2022/09/24 04:31:40;;;;;;;8.57;5.82;;;;;;;;;;5018362;28;20075;-78
2022/09/24 04:34:05;;;;;;;8.60;6.13;;;;;;;;;;5017729;28;20112;-78
2022/09/24 04:36:31;;;;;;;7.38;6.35;;;;;;;;;;5017861;28;20402;-78
2022/09/24 04:38:56;;;;;;;9.10;5.65;;;;;;;;;;5017640;28;20376;-78
2022/09/24 04:41:21;;;;;;;9.07;5.75;;;;;;;;;;5017618;28;20028;-78
2022/09/24 04:43:47;;;;;;;8.00;5.85;;;;;;;;;;5017386;28;20403;-78
2022/09/24 04:46:12;;;;;;;7.43;5.38;;;;;;;;;;5017758;28;20036;-78
2022/09/24 04:48:38;;;;;;;8.30;5.93;;;;;;;;;;5008696;28;20723;-78
2022/09/24 04:51:05;;;;;;;8.50;5.85;;;;;;;;;;4998271;28;20033;-78
2022/09/24 04:53:31;;;;;;;8.05;5.43;;;;;;;;;;4997837;28;20037;-78
2022/09/24 04:55:58;;;;;;;8.00;5.93;;;;;;;;;;5022779;28;20487;-78
2022/09/24 04:58:24;;;;;;;7.22;5.30;;;;;;;;;;4982449;28;20025;-78
2022/09/24 05:00:50;;;;;;;8.88;5.80;;;;;;;;;;5015359;28;20030;-79
2022/09/24 05:03:15;;;;;;;7.70;6.13;;;;;;;;;;5017483;28;20083;-78
2022/09/24 05:05:41;;;;;;;7.70;5.72;;;;;;;;;;5035912;28;20029;-78
2022/09/24 05:08:06;;;;;;;7.97;5.43;;;;;;;;;;5013978;28;20108;-78
2022/09/24 05:10:33;;;;;;;7.13;5.03;;;;;;;;;;5018590;28;20442;-78
2022/09/24 05:12:58;;;;;;;7.55;5.05;;;;;;;;;;5024635;28;20037;-78
2022/09/24 05:15:24;;;;;;;7.90;5.07;;;;;;;;;;5025612;28;20071;-79
2022/09/24 05:17:50;;;;;;;7.55;4.95;;;;;;;;;;5029015;28;20078;-78
2022/09/24 05:20:18;;;;;;;7.50;5.38;;;;;;;;;;5035542;28;20098;-78
2022/09/24 05:22:44;;;;;;;7.55;5.18;;;;;;;;;;5006390;28;20052;-78
2022/09/24 05:25:10;;;;;;;8.70;5.78;;;;;;;;;;5026121;28;20107;-78
2022/09/24 05:27:36;;;;;;;6.90;5.07;;;;;;;;;;5016659;28;20025;-78
2022/09/24 05:30:02;;;;;;;6.07;4.28;;;;;;;;;;4981438;28;20033;-78
2022/09/24 05:32:27;;;;;;;5.88;4.43;;;;;;;;;;4997657;28;20032;-79
2022/09/24 05:34:53;;;;;;;7.10;4.90;;;;;;;;;;4981297;28;20033;-79
2022/09/24 05:37:18;;;;;;;7.13;4.70;;;;;;;;;;4981239;28;20372;-79
2022/09/24 05:39:44;;;;;;;8.13;4.72;;;;;;;;;;4965074;28;20108;-79
2022/09/24 05:42:12;;;;;;;7.38;5.05;;;;;;;;;;5015665;28;20274;-79
2022/09/24 05:44:38;;;;;;;6.38;4.25;;;;;;;;;;5020902;28;20072;-79
2022/09/24 05:47:03;;;;;;;6.97;4.80;;;;;;;;;;5035806;28;20043;-79
2022/09/24 05:49:29;;;;;;;7.32;5.03;;;;;;;;;;5000891;28;20506;-79
2022/09/24 05:51:54;;;;;;;6.82;4.70;;;;;;;;;;5014279;28;20108;-80
2022/09/24 05:54:20;;;;;;;6.68;4.95;;;;;;;;;;5017463;28;21929;-79
2022/09/24 05:56:46;;;;;;;7.90;4.75;;;;;;;;;;4998515;28;20402;-78
2022/09/24 05:59:11;;;;;;;9.57;5.28;;;;;;;;;;5011543;28;20120;-78
2022/09/24 06:01:37;;;;;;;7.28;5.00;;;;;;;;;;5027108;28;20121;-78
2022/09/24 06:04:02;;;;;;;8.27;5.63;;;;;;;;;;5016825;28;20033;-78
2022/09/24 06:06:28;;;;;;;11.43;5.25;;;;;;;;;;5016598;28;20032;-78
2022/09/24 06:08:53;;;;;;;7.55;5.25;;;;;;;;;;5000408;28;20383;-78
2022/09/24 06:11:21;;;;;;;7.90;4.50;;;;;;;;;;4999239;28;20052;-78
2022/09/24 06:13:47;;;;;;;11.23;5.15;;;;;;;;;;5014886;28;20063;-78
2022/09/24 06:16:16;;;;;;;8.82;4.68;;;;;;;;;;5030373;28;20035;-77
2022/09/24 06:18:43;;;;;;;10.23;5.68;;;;;;;;;;5025180;28;20055;-78
2022/09/24 06:21:16;;;;;;;12.35;4.70;;;;;;;;;;5022393;28;20029;-78
2022/09/24 06:23:44;;;;;;;15.15;5.82;;;;;;;;;;5023822;28;20447;-78
2022/09/24 06:26:10;;;;;;;10.55;5.18;;;;;;;;;;5027412;28;20043;-78
2022/09/24 06:28:36;;;;;;;9.85;5.05;;;;;;;;;;5055351;28;20041;-78
2022/09/24 06:31:01;;;;;;;8.27;4.63;;;;;;;;;;5023895;28;20044;-78
2022/09/24 06:33:27;;;;;;;13.20;5.82;;;;;;;;;;5009669;28;20045;-78
2022/09/24 06:35:52;;;;;;;11.63;4.45;;;;;;;;;;5029424;28;20032;-78
2022/09/24 06:38:18;;;;;;;9.02;5.10;;;;;;;;;;5030027;28;20033;-78
2022/09/24 06:40:45;;;;;;;17.17;4.40;;;;;;;;;;5008961;28;20040;-79
2022/09/24 06:43:12;;;;;;;8.27;4.22;;;;;;;;;;5037687;28;20067;-79
2022/09/24 06:45:38;;;;;;;11.40;4.95;;;;;;;;;;5055362;28;20057;-78
2022/09/24 06:48:04;;;;;;;7.70;4.45;;;;;;;;;;5029800;28;20052;-79
2022/09/24 06:50:30;;;;;;;11.32;4.20;;;;;;;;;;5056062;28;20020;-79
2022/09/24 06:52:56;;;;;;;9.20;4.18;;;;;;;;;;5039940;28;20028;-79
2022/09/24 06:55:21;;;;;;;8.98;4.85;;;;;;;;;;5008598;28;20467;-79
2022/09/24 06:57:47;;;;;;;9.13;4.22;;;;;;;;;;4983948;28;20033;-79
2022/09/24 07:00:12;;;;;;;10.88;4.72;;;;;;;;;;4983717;28;20033;-79
2022/09/24 07:02:38;;;;;;;30.33;17.13;;;;;;;;;;4998990;28;20033;-80
2022/09/24 07:05:04;;;;;;;26.10;16.25;;;;;;;;;;5033739;28;20029;-79
2022/09/24 07:07:31;;;;;;;36.28;23.58;;;;;;;;;;5019304;28;20056;-80
2022/09/24 07:09:57;;;;;;;46.40;30.90;;;;;;;;;;5002366;28;20029;-79
2022/09/24 07:12:22;;;;;;;48.60;29.52;;;;;;;;;;5027628;28;20066;-79
2022/09/24 07:14:48;;;;;;;41.72;27.45;;;;;;;;;;5006908;28;20028;-79
2022/09/24 07:17:14;;;;;;;51.15;27.92;;;;;;;;;;5016922;28;20692;-79
2022/09/24 07:19:40;;;;;;;44.97;27.05;;;;;;;;;;5029234;28;20029;-78
2022/09/24 07:22:05;;;;;;;55.38;28.08;;;;;;;;;;5020595;28;20055;-80
2022/09/24 07:24:31;;;;;;;47.22;30.48;;;;;;;;;;4986667;28;20028;-79
2022/09/24 07:26:56;;;;;;;42.08;28.73;;;;;;;;;;5002826;28;20398;-79
2022/09/24 07:29:21;;;;;;;43.50;26.83;;;;;;;;;;5015698;28;20400;-79
2022/09/24 07:31:47;;;;;;;44.03;25.67;;;;;;;;;;4982803;28;20045;-80
2022/09/24 07:34:13;;;;;;;52.67;28.55;;;;;;;;;;4999374;28;20093;-79
2022/09/24 07:36:39;;;;;;;47.35;27.88;;;;;;;;;;4983335;28;20705;-80
2022/09/24 07:39:04;;;;;;;46.28;27.83;;;;;;;;;;4999812;28;20072;-80
2022/09/24 07:41:30;;;;;;;54.00;29.20;;;;;;;;;;4983131;28;20033;-79
2022/09/24 07:43:55;;;;;;;49.58;28.30;;;;;;;;;;4982753;28;20037;-79
2022/09/24 07:46:21;;;;;;;45.33;27.75;;;;;;;;;;5001515;28;20091;-80
2022/09/24 07:48:48;;;;;;;46.70;27.27;;;;;;;;;;5033952;28;20033;-80
2022/09/24 07:51:14;;;;;;;39.33;26.92;;;;;;;;;;5039137;28;20028;-80
2022/09/24 07:53:39;;;;;;;41.78;25.67;;;;;;;;;;5038282;28;20033;-80
2022/09/24 07:56:05;;;;;;;43.90;25.92;;;;;;;;;;5001297;28;20507;-79
2022/09/24 07:58:30;;;;;;;41.10;26.30;;;;;;;;;;4982675;28;20125;-79
2022/09/24 08:00:57;;;;;;;41.63;25.85;;;;;;;;;;5000734;28;20499;-80
2022/09/24 08:03:23;;;;;;;40.42;25.45;;;;;;;;;;5018561;28;20111;-80
2022/09/24 08:05:48;;;;;;;38.83;24.33;;;;;;;;;;5035045;28;20067;-79
2022/09/24 08:08:14;;;;;;;36.80;23.65;;;;;;;;;;5018141;28;20071;-79
2022/09/24 08:10:40;;;;;;;34.65;23.77;;;;;;;;;;5039184;28;20036;-80
2022/09/24 08:13:07;;;;;;;39.40;24.77;;;;;;;;;;5021743;28;20522;-80
2022/09/24 08:15:34;;;;;;;36.70;22.30;;;;;;;;;;5043886;28;20058;-80
2022/09/24 08:18:02;;;;;;;34.58;22.52;;;;;;;;;;5011922;28;20495;-80
2022/09/24 08:20:28;;;;;;;35.55;21.83;;;;;;;;;;5007966;28;20033;-80
2022/09/24 08:22:53;;;;;;;37.22;21.67;;;;;;;;;;5011197;28;20016;-80
2022/09/24 08:25:25;;;;;;;33.95;20.13;;;;;;;;;;5011201;28;20080;-80
2022/09/24 08:27:52;;;;;;;33.13;20.58;;;;;;;;;;5024172;28;20022;-80
2022/09/24 08:30:18;;;;;;;28.05;19.50;;;;;;;;;;5034631;28;20104;-79
2022/09/24 08:32:49;;;;;;;29.35;18.85;;;;;;;;;;5028632;28;20386;-80
2022/09/24 08:35:23;;;;;;;28.27;17.73;;;;;;;;;;5028061;28;20099;-80
2022/09/24 08:37:53;;;;;;;27.13;18.67;;;;;;;;;;5009191;28;20022;-80
2022/09/24 08:40:23;;;;;;;22.77;17.05;;;;;;;;;;5026485;28;20390;-80
2022/09/24 08:43:09;;;;;;;26.38;18.77;;;;;;;;;;5021995;28;20514;-80
2022/09/24 08:49:11;;;;;;;27.27;17.13;;;;;;;;;;5011329;28;20025;-80
2022/09/24 08:51:53;;;;;;;23.23;14.27;;;;;;;;;;5044392;28;20466;-80
2022/09/24 08:54:18;;;;;;;25.75;15.48;;;;;;;;;;5024535;28;20361;-80
2022/09/24 08:56:44;;;;;;;21.50;14.60;;;;;;;;;;5011377;28;20096;-80
2022/09/24 08:59:17;;;;;;;25.08;16.38;;;;;;;;;;5018360;28;20037;-80
2022/09/24 09:02:12;;;;;;;28.00;16.20;;;;;;;;;;5045668;28;20104;-80
2022/09/24 09:04:56;;;;;;;22.27;14.68;;;;;;;;;;5017012;28;20495;-79
2022/09/24 09:07:34;;;;;;;21.98;14.55;;;;;;;;;;5033729;28;20028;-80
2022/09/24 09:10:00;;;;;;;21.80;14.45;;;;;;;;;;5013450;28;20044;-80
2022/09/24 09:12:37;;;;;;;24.27;14.45;;;;;;;;;;4997164;28;20392;-79
2022/09/24 09:15:05;;;;;;;23.75;14.20;;;;;;;;;;4997977;28;20041;-80
2022/09/24 09:17:47;;;;;;;19.20;12.70;;;;;;;;;;4997808;28;20423;-80
2022/09/24 09:20:22;;;;;;;18.90;13.13;;;;;;;;;;4997801;28;20467;-80
2022/09/24 09:22:48;;;;;;;22.25;12.80;;;;;;;;;;4981985;28;20025;-79
2022/09/24 09:25:23;;;;;;;21.55;13.32;;;;;;;;;;4981378;28;20104;-79
2022/09/24 09:27:59;;;;;;;22.42;12.60;;;;;;;;;;4982033;28;20029;-79
2022/09/24 09:30:25;;;;;;;18.73;12.57;;;;;;;;;;4981732;28;20503;-79
2022/09/24 09:32:53;;;;;;;21.00;12.98;;;;;;;;;;4985234;28;20064;-80
2022/09/24 09:35:47;;;;;;;20.75;12.13;;;;;;;;;;5044208;28;20470;-80
2022/09/24 09:38:22;;;;;;;24.55;11.68;;;;;;;;;;5022335;28;20039;-79
2022/09/24 09:41:01;;;;;;;20.33;11.63;;;;;;;;;;5020300;28;20028;-79
2022/09/24 09:43:30;;;;;;;22.85;11.27;;;;;;;;;;5046433;28;20039;-80
2022/09/24 09:45:58;;;;;;;27.77;11.95;;;;;;;;;;5027440;28;20036;-79
2022/09/24 09:48:25;;;;;;;26.83;11.95;;;;;;;;;;5032340;28;20025;-79
2022/09/24 09:50:51;;;;;;;22.23;12.02;;;;;;;;;;5035598;28;20403;-79
2022/09/24 09:53:24;;;;;;;22.60;12.45;;;;;;;;;;5036392;28;20483;-79
2022/09/24 09:55:57;;;;;;;28.48;10.95;;;;;;;;;;5040886;28;20471;-79
2022/09/24 09:58:23;;;;;;;22.25;11.05;;;;;;;;;;5021132;28;20053;-79
2022/09/24 10:00:49;;;;;;;22.50;10.82;;;;;;;;;;5037153;28;20036;-80
2022/09/24 10:03:25;;;;;;;21.33;9.23;;;;;;;;;;5020759;28;20033;-79
2022/09/24 10:05:56;;;;;;;18.00;8.93;;;;;;;;;;5019720;28;20033;-79
2022/09/24 10:08:22;;;;;;;20.85;10.68;;;;;;;;;;5019792;28;20025;-80
2022/09/24 10:10:54;;;;;;;20.17;10.73;;;;;;;;;;5036605;28;20091;-80
2022/09/24 10:13:19;;;;;;;21.33;10.33;;;;;;;;;;5037353;28;20524;-79
2022/09/24 10:16:04;;;;;;;19.25;9.50;;;;;;;;;;5019988;28;20045;-79
2022/09/24 10:18:31;;;;;;;20.98;9.10;;;;;;;;;;5020353;28;20492;-79
2022/09/24 10:20:57;;;;;;;19.30;10.10;;;;;;;;;;5021271;28;20025;-79
2022/09/24 10:23:29;;;;;;;17.17;8.95;;;;;;;;;;5020150;28;20380;-79
2022/09/24 10:25:59;;;;;;;17.92;9.23;;;;;;;;;;5004351;28;20029;-79
2022/09/24 10:31:12;;;;;;;18.90;8.93;;;;;;;;;;5022693;28;20025;-79
2022/09/24 10:33:39;;;;;;;21.33;9.60;;;;;;;;;;5036584;28;20033;-79
2022/09/24 10:36:13;;;;;;;16.90;8.75;;;;;;;;;;5004148;28;20445;-80
2022/09/24 10:38:38;;;;;;;21.13;8.73;;;;;;;;;;5003706;28;20191;-79
2022/09/24 10:41:33;;;;;;;20.35;9.35;;;;;;;;;;5003287;28;20650;-79
2022/09/24 10:44:10;;;;;;;17.90;8.30;;;;;;;;;;5045253;28;20052;-79
2022/09/24 10:47:04;;;;;;;16.25;8.05;;;;;;;;;;5036143;28;20079;-79
2022/09/24 10:49:48;;;;;;;15.70;8.15;;;;;;;;;;5043532;28;20644;-79
2022/09/24 10:52:50;;;;;;;18.67;8.30;;;;;;;;;;5062806;28;20041;-79
2022/09/24 10:55:27;;;;;;;18.23;8.27;;;;;;;;;;5029523;28;20038;-79
2022/09/24 10:57:53;;;;;;;18.63;8.35;;;;;;;;;;5026765;28;20086;-79
2022/09/24 11:00:22;;;;;;;13.07;7.57;;;;;;;;;;5074155;28;20037;-79
2022/09/24 11:02:59;;;;;;;13.88;6.70;;;;;;;;;;5022193;28;20064;-79
2022/09/24 11:05:57;;;;;;;12.32;8.23;;;;;;;;;;5040008;28;20040;-79
2022/09/24 11:09:05;;;;;;;14.68;7.05;;;;;;;;;;5001885;28;20402;-79
2022/09/24 11:11:39;;;;;;;12.13;7.63;;;;;;;;;;5018658;28;20049;-80
2022/09/24 11:14:05;;;;;;;12.98;7.60;;;;;;;;;;4999448;28;20388;-79
2022/09/24 11:16:47;;;;;;;12.75;7.13;;;;;;;;;;4999765;28;20029;-80
2022/09/24 11:19:26;;;;;;;;;;;;;;;;;;5010114;28;20079;-79
2022/09/24 11:21:56;;;;;;;11.40;6.32;;;;;;;;;;5036002;28;19912;-79
2022/09/24 11:24:37;;;;;;;11.93;7.20;;;;;;;;;;5035089;28;20553;-79
2022/09/24 11:27:37;;;;;;;12.60;6.95;;;;;;;;;;5036507;28;20104;-79
2022/09/24 11:30:29;;;;;;;13.25;7.22;;;;;;;;;;5008317;28;20036;-79
2022/09/24 11:33:09;;;;;;;;;;;;;;;;;;5028872;28;20036;-79
2022/09/24 11:36:01;;;;;;;12.50;7.20;;;;;;;;;;5048394;28;19914;-79
2022/09/24 11:38:31;;;;;;;14.07;6.90;;;;;;;;;;5012900;28;20029;-79
2022/09/24 11:41:30;;;;;;;17.90;7.55;;;;;;;;;;5051788;28;20041;-79
2022/09/24 11:44:12;;;;;;;13.63;7.63;;;;;;;;;;5035524;28;20037;-79
2022/09/24 11:46:50;;;;;;;13.30;8.13;;;;;;;;;;5035237;28;20065;-79
2022/09/24 11:49:36;;;;;;;14.10;7.70;;;;;;;;;;5070313;28;20047;-79
2022/09/24 11:52:26;;;;;;;17.98;8.00;;;;;;;;;;4998994;28;20430;-80
2022/09/24 11:55:20;;;;;;;15.88;7.93;;;;;;;;;;5008153;28;20031;-79
2022/09/24 11:58:13;;;;;;;15.07;8.20;;;;;;;;;;5009778;28;20044;-79
2022/09/24 12:01:04;;;;;;;14.25;7.82;;;;;;;;;;5053165;28;20051;-79
2022/09/24 12:03:46;;;;;;;13.05;8.00;;;;;;;;;;5018700;28;20041;-79
2022/09/24 12:06:53;;;;;;;14.80;8.05;;;;;;;;;;5028028;28;20033;-79
2022/09/24 12:09:40;;;;;;;10.75;7.60;;;;;;;;;;5044749;28;20036;-78
2022/09/24 12:12:13;;;;;;;13.05;7.32;;;;;;;;;;5018208;28;20057;-79
2022/09/24 12:14:43;;;;;;;12.38;7.35;;;;;;;;;;5051511;28;20033;-79
2022/09/24 12:17:13;;;;;;;14.07;7.35;;;;;;;;;;5035024;28;20041;-79
2022/09/24 12:19:46;;;;;;;12.32;7.20;;;;;;;;;;5027035;28;20032;-79
2022/09/24 12:22:11;;;;;;;12.05;6.75;;;;;;;;;;5018482;28;20056;-79
2022/09/24 12:24:40;;;;;;;10.57;6.50;;;;;;;;;;5017775;28;20375;-79
2022/09/24 12:27:12;;;;;;;10.02;6.45;;;;;;;;;;5051427;28;20037;-79
2022/09/24 12:32:54;;;;;;;12.40;7.13;;;;;;;;;;5039101;28;20086;-78
2022/09/24 12:35:28;;;;;;;9.88;6.45;;;;;;;;;;5019402;28;20036;-79
2022/09/24 12:38:04;;;;;;;14.50;6.65;;;;;;;;;;5052436;28;20032;-79
2022/09/24 12:40:54;;;;;;;9.20;5.70;;;;;;;;;;5035060;28;20389;-78
2022/09/24 12:43:26;;;;;;;10.45;6.28;;;;;;;;;;5033811;28;20044;-79
2022/09/24 12:45:55;;;;;;;10.20;5.78;;;;;;;;;;5042081;28;20044;-79
2022/09/24 12:48:21;;;;;;;10.65;6.35;;;;;;;;;;5011924;28;20037;-78
2022/09/24 12:50:54;;;;;;;12.43;6.75;;;;;;;;;;4997781;28;20092;-78
2022/09/24 12:53:26;;;;;;;9.32;5.80;;;;;;;;;;5012354;28;20056;-78
2022/09/24 12:55:57;;;;;;;9.75;6.57;;;;;;;;;;5026790;28;20444;-78
2022/09/24 12:58:38;;;;;;;10.10;5.50;;;;;;;;;;5011076;28;20158;-78
2022/09/24 13:01:25;;;;;;;13.70;5.70;;;;;;;;;;5044369;28;20558;-78
2022/09/24 13:04:20;;;;;;;13.60;6.65;;;;;;;;;;4993922;28;20045;-78
2022/09/24 13:06:47;;;;;;;9.95;5.78;;;;;;;;;;5042367;28;20048;-78
2022/09/24 13:09:45;;;;;;;8.25;5.22;;;;;;;;;;5017337;28;20086;-78
2022/09/24 13:12:14;;;;;;;8.88;5.40;;;;;;;;;;4995254;28;20045;-78
2022/09/24 13:14:40;;;;;;;11.02;5.78;;;;;;;;;;5042468;28;20041;-78
2022/09/24 13:17:06;;;;;;;12.50;7.85;;;;;;;;;;5013319;28;20149;-78
2022/09/24 13:19:43;;;;;;;14.43;8.57;;;;;;;;;;5030641;28;20562;-78
2022/09/24 13:22:22;;;;;;;16.63;7.75;;;;;;;;;;5014636;28;20036;-78
2022/09/24 13:24:49;;;;;;;14.95;6.63;;;;;;;;;;5001524;28;20032;-78
2022/09/24 13:27:20;;;;;;;11.68;6.25;;;;;;;;;;5017228;28;20076;-78
2022/09/24 13:29:46;;;;;;;15.03;6.60;;;;;;;;;;5040144;28;20064;-78
2022/09/24 13:32:17;;;;;;;11.00;6.65;;;;;;;;;;5025647;28;20044;-78
2022/09/24 13:34:43;;;;;;;11.18;6.13;;;;;;;;;;5005631;28;20104;-77
2022/09/24 13:37:14;;;;;;;13.50;6.88;;;;;;;;;;4993492;28;20071;-77
2022/09/24 13:39:52;;;;;;;12.98;6.93;;;;;;;;;;5011600;28;20025;-78
2022/09/24 13:42:20;;;;;;;11.70;5.95;;;;;;;;;;5052887;28;20086;-78
2022/09/24 13:44:56;;;;;;;15.68;6.78;;;;;;;;;;5061031;28;20115;-78
2022/09/24 13:47:50;;;;;;;12.98;6.93;;;;;;;;;;5024942;28;20036;-77
2022/09/24 13:50:27;;;;;;;12.52;6.70;;;;;;;;;;5033928;28;20055;-77
2022/09/24 13:52:54;;;;;;;10.32;5.82;;;;;;;;;;5035198;28;20036;-76
2022/09/24 13:55:30;;;;;;;8.55;5.72;;;;;;;;;;5059977;28;20059;-77
2022/09/24 13:57:56;;;;;;;13.13;6.07;;;;;;;;;;5021783;28;20026;-77
2022/09/24 14:00:25;;;;;;;12.10;6.38;;;;;;;;;;4981264;28;20431;-76
2022/09/24 14:03:19;;;;;;;12.02;6.30;;;;;;;;;;5011705;28;20108;-77
2022/09/24 14:05:44;;;;;;;11.80;5.72;;;;;;;;;;5008605;28;20057;-77
2022/09/24 14:08:14;;;;;;;8.30;5.60;;;;;;;;;;4980818;28;20379;-77
2022/09/24 14:10:40;;;;;;;9.88;5.68;;;;;;;;;;5006891;28;20148;-76
2022/09/24 14:13:20;;;;;;;11.13;5.57;;;;;;;;;;5004882;28;20105;-76
2022/09/24 14:16:09;;;;;;;9.75;5.65;;;;;;;;;;5007914;28;20517;-78
2022/09/24 14:18:36;;;;;;;10.00;5.32;;;;;;;;;;5016583;28;20128;-77
2022/09/24 14:21:26;;;;;;;8.88;5.07;;;;;;;;;;5014202;28;20040;-77
2022/09/24 14:23:55;;;;;;;7.32;5.13;;;;;;;;;;5022311;28;20163;-77
2022/09/24 14:26:32;;;;;;;9.45;5.50;;;;;;;;;;5022125;28;20021;-77
2022/09/24 14:29:15;;;;;;;8.70;5.85;;;;;;;;;;5005489;28;20032;-77
2022/09/24 14:31:45;;;;;;;9.32;5.55;;;;;;;;;;4991298;28;20029;-77
2022/09/24 14:34:24;;;;;;;7.60;5.30;;;;;;;;;;5023736;28;20048;-77
2022/09/24 14:36:50;;;;;;;7.13;5.20;;;;;;;;;;4996908;28;20037;-76
2022/09/24 14:39:15;;;;;;;7.32;5.18;;;;;;;;;;4996007;28;20480;-77
2022/09/24 14:41:41;;;;;;;7.57;4.75;;;;;;;;;;5005496;28;20395;-77
2022/09/24 14:44:11;;;;;;;9.77;5.22;;;;;;;;;;5010772;28;20155;-76
2022/09/24 14:46:39;;;;;;;7.35;5.13;;;;;;;;;;5000657;28;20049;-77
2022/09/24 14:49:26;;;;;;;6.95;4.72;;;;;;;;;;4992749;28;20065;-77
2022/09/24 14:51:55;;;;;;;8.48;5.50;;;;;;;;;;5025828;28;20033;-77
2022/09/24 14:54:29;;;;;;;8.30;4.93;;;;;;;;;;5009113;28;20079;-77
2022/09/24 14:56:54;;;;;;;8.98;5.00;;;;;;;;;;5019490;28;20037;-76
2022/09/24 14:59:28;;;;;;;9.35;5.47;;;;;;;;;;5017023;28;20112;-77
2022/09/24 15:02:16;;;;;;;7.20;4.75;;;;;;;;;;4988115;28;20021;-77
2022/09/24 15:05:05;;;;;;;7.05;4.78;;;;;;;;;;5036893;28;20041;-77